Chan Gurney Municipal Airport


Codes: KYKN/
Name: Chan Gurney Municipal Airport
City: Yankton
Country: United States
Elevation: 1306 ft.
Wikipedia:

Photos at Chan Gurney Municipal Airport


   Photos courtesy of SpottingLog. You can add your own sightings and photos by signing up for a free trial today.



No photos found.

Weather at Chan Gurney Municipal Airport


Time (UTC)DescriptionTempratureWindCloud coverageVisibilityPressureHumidity
18-Apr-2024 00:00Few Clouds14°C9 mph, NW14%10000m1013hPa56%
18-Apr-2024 03:00Broken Clouds11°C18 mph, N65%10000m1015hPa69%
18-Apr-2024 06:00Moderate Rain8°C7 mph, NW99%10000m1018hPa89%
18-Apr-2024 09:00Moderate Rain7°C4 mph, SW100%10000m1019hPa88%
18-Apr-2024 12:00Light Rain7°C9 mph, NW100%10000m1021hPa71%
18-Apr-2024 15:00Broken Clouds8°C18 mph, NW72%10000m1022hPa54%
18-Apr-2024 18:00Scattered Clouds10°C18 mph, NW40%10000m1022hPa45%
18-Apr-2024 21:00Scattered Clouds11°C18 mph, NW25%10000m1021hPa39%
19-Apr-2024 00:00Scattered Clouds10°C13 mph, NW39%10000m1021hPa45%
19-Apr-2024 03:00Clear Sky6°C9 mph, W2%10000m1023hPa59%
19-Apr-2024 06:00Clear Sky4°C9 mph, W1%10000m1023hPa62%
19-Apr-2024 09:00Clear Sky3°C9 mph, W4%10000m1023hPa61%
19-Apr-2024 12:00Scattered Clouds3°C9 mph, W36%10000m1025hPa57%
19-Apr-2024 15:00Overcast Clouds6°C18 mph, NW98%10000m1026hPa39%
19-Apr-2024 18:00Overcast Clouds9°C20 mph, NW98%10000m1025hPa37%
19-Apr-2024 21:00Overcast Clouds10°C20 mph, NW93%10000m1023hPa37%
20-Apr-2024 00:00Broken Clouds9°C16 mph, NW80%10000m1023hPa45%
20-Apr-2024 03:00Clear Sky5°C13 mph, NW0%10000m1026hPa47%
20-Apr-2024 06:00Clear Sky3°C11 mph, NW2%10000m1028hPa55%
20-Apr-2024 09:00Clear Sky1°C11 mph, NW0%10000m1029hPa60%
20-Apr-2024 12:00Clear Sky-0°C9 mph, NW0%10000m1031hPa70%
20-Apr-2024 15:00Broken Clouds4°C11 mph, NW67%10000m1031hPa55%
20-Apr-2024 18:00Overcast Clouds7°C11 mph, NW87%10000m1029hPa46%
20-Apr-2024 21:00Broken Clouds10°C11 mph, NW59%10000m1026hPa41%
21-Apr-2024 00:00Broken Clouds9°C7 mph, NW74%10000m1025hPa48%
21-Apr-2024 03:00Overcast Clouds5°C4 mph, NW98%10000m1027hPa61%
21-Apr-2024 06:00Overcast Clouds4°C2 mph, W100%10000m1027hPa63%
21-Apr-2024 09:00Clear Sky3°C4 mph, W1%10000m1026hPa64%
21-Apr-2024 12:00Clear Sky2°C4 mph, W0%10000m1027hPa66%
21-Apr-2024 15:00Clear Sky9°C7 mph, W2%10000m1025hPa50%
21-Apr-2024 18:00Clear Sky12°C7 mph, W1%10000m1023hPa37%
21-Apr-2024 21:00Clear Sky14°C7 mph, SW6%10000m1020hPa35%
22-Apr-2024 00:00Clear Sky14°C4 mph, SE6%10000m1017hPa46%
22-Apr-2024 03:00Clear Sky8°C7 mph, S7%10000m1018hPa69%
22-Apr-2024 06:00Scattered Clouds8°C9 mph, S35%10000m1016hPa72%
22-Apr-2024 09:00Overcast Clouds8°C11 mph, S100%10000m1014hPa73%
22-Apr-2024 12:00Overcast Clouds8°C11 mph, S100%10000m1011hPa77%
22-Apr-2024 15:00Light Rain12°C16 mph, S100%10000m1009hPa77%
22-Apr-2024 18:00Light Rain14°C13 mph, SW100%10000m1008hPa69%
22-Apr-2024 21:00Overcast Clouds19°C9 mph, W99%10000m1006hPa51%